NKA52 EGPH-EGPF

Flight info

Callsign NKA52
Flight time 0h 31m
Altitude 4000
Route GRICE DCT STIRA
Aircraft C172/L-SFG/C

Departure

Time 2026-04-25 18:11
Airport Edinburgh Airport (EGPH)

Arrival

Time 2026-04-25 18:42
Airport Glasgow Airport (EGPF)
Time Latitude Longitude Altitude Speed Heading
2026-04-25 17:51 55.95253 -3.35688 103 ft 0 kts 29°
2026-04-25 17:59 55.95254 -3.35687 103 ft 2 kts 31°
2026-04-25 18:00 55.95259 -3.35642 103 ft 8 kts 147°
2026-04-25 18:00 55.95207 -3.35676 103 ft 7 kts 259°
2026-04-25 18:01 55.95204 -3.35731 103 ft 0 kts 310°
2026-04-25 18:03 55.95204 -3.35732 103 ft 1 kts 312°
2026-04-25 18:03 55.95234 -3.35803 100 ft 15 kts 316°
2026-04-25 18:03 55.95232 -3.35988 96 ft 22 kts 237°
2026-04-25 18:04 55.95146 -3.36243 99 ft 25 kts 242°
2026-04-25 18:04 55.95049 -3.36527 103 ft 28 kts 239°
2026-04-25 18:04 55.94942 -3.36848 100 ft 30 kts 239°
2026-04-25 18:04 55.94834 -3.37164 100 ft 29 kts 238°
2026-04-25 18:05 55.94738 -3.37448 105 ft 25 kts 239°
2026-04-25 18:05 55.94655 -3.37692 109 ft 21 kts 239°
2026-04-25 18:05 55.94589 -3.37907 107 ft 16 kts 271°
2026-04-25 18:05 55.94633 -3.37991 108 ft 0 kts 328°
2026-04-25 18:08 55.94636 -3.37994 108 ft 1 kts 329°
2026-04-25 18:09 55.94638 -3.37996 108 ft 2 kts 327°
2026-04-25 18:09 55.94681 -3.38044 109 ft 9 kts 334°
2026-04-25 18:09 55.94734 -3.38026 111 ft 0 kts 58°
2026-04-25 18:10 55.94777 -3.37899 112 ft 36 kts 59°
2026-04-25 18:10 55.94981 -3.37328 176 ft 62 kts 59°
2026-04-25 18:10 55.95220 -3.36642 329 ft 65 kts 59°
2026-04-25 18:11 55.95475 -3.35917 566 ft 72 kts 58°
2026-04-25 18:11 55.95830 -3.35131 700 ft 87 kts 52°
2026-04-25 18:11 55.96221 -3.34335 989 ft 81 kts 54°
2026-04-25 18:11 55.96622 -3.33606 1188 ft 84 kts 51°
2026-04-25 18:12 55.97055 -3.32944 1447 ft 81 kts 47°
2026-04-25 18:12 55.97519 -3.32288 1657 ft 88 kts 45°
2026-04-25 18:12 55.98034 -3.31639 1818 ft 97 kts 40°
2026-04-25 18:12 55.98608 -3.31050 2055 ft 96 kts 39°
2026-04-25 18:13 55.99184 -3.30430 2223 ft 98 kts 40°
2026-04-25 18:13 55.99794 -3.29899 2456 ft 100 kts 30°
2026-04-25 18:13 56.00467 -3.29510 2614 ft 105 kts 24°
2026-04-25 18:14 56.01895 -3.28650 2896 ft 105 kts 21°
2026-04-25 18:14 56.02594 -3.28243 3050 ft 107 kts 20°
2026-04-25 18:14 56.03315 -3.27838 3205 ft 109 kts 17°
2026-04-25 18:14 56.04028 -3.27502 3401 ft 107 kts 12°
2026-04-25 18:15 56.04776 -3.27247 3499 ft 112 kts
2026-04-25 18:15 56.05520 -3.27369 3563 ft 101 kts 327°
2026-04-25 18:15 56.05825 -3.28605 3500 ft 117 kts 268°
2026-04-25 18:15 56.05533 -3.29928 3400 ft 126 kts 237°
2026-04-25 18:16 56.05444 -3.31417 3413 ft 125 kts 285°
2026-04-25 18:16 56.05737 -3.32861 3469 ft 121 kts 289°
2026-04-25 18:16 56.06232 -3.35417 3742 ft 94 kts 285°
2026-04-25 18:17 56.06376 -3.36552 3789 ft 92 kts 279°
2026-04-25 18:17 56.06449 -3.37648 3885 ft 86 kts 272°
2026-04-25 18:17 56.06455 -3.38757 3876 ft 93 kts 270°
2026-04-25 18:17 56.06407 -3.39930 3836 ft 97 kts 264°
2026-04-25 18:18 56.06401 -3.41149 3796 ft 97 kts 269°
2026-04-25 18:18 56.06369 -3.42258 3921 ft 89 kts 260°
2026-04-25 18:18 56.06279 -3.43410 3876 ft 98 kts 268°
2026-04-25 18:18 56.06444 -3.44555 3874 ft 102 kts 287°
2026-04-25 18:19 56.06701 -3.45847 3886 ft 114 kts 287°
2026-04-25 18:19 56.06981 -3.47142 4007 ft 112 kts 295°
2026-04-25 18:19 56.07381 -3.48363 4100 ft 114 kts 301°
2026-04-25 18:19 56.07856 -3.49555 4130 ft 117 kts 302°
2026-04-25 18:20 56.08273 -3.50882 3963 ft 128 kts 294°
2026-04-25 18:20 56.08609 -3.52251 3896 ft 116 kts 291°
2026-04-25 18:20 56.08856 -3.53401 4197 ft 86 kts 278°
2026-04-25 18:20 56.08737 -3.54547 3999 ft 105 kts 258°
2026-04-25 18:21 56.08838 -3.55696 4025 ft 113 kts 279°
2026-04-25 18:21 56.09193 -3.56965 4043 ft 111 kts 301°
2026-04-25 18:21 56.09631 -3.58070 4135 ft 110 kts 303°
2026-04-25 18:21 56.10204 -3.59071 4081 ft 121 kts 319°
2026-04-25 18:22 56.10784 -3.59973 4110 ft 113 kts 314°
2026-04-25 18:22 56.10978 -3.60304 4050 ft 112 kts 314°
2026-04-25 18:22 56.11789 -3.61798 3862 ft 87 kts 311°
2026-04-25 18:22 56.12158 -3.62444 3706 ft 77 kts 309°
2026-04-25 18:23 56.12501 -3.63207 3826 ft 66 kts 292°
2026-04-25 18:23 56.12678 -3.63990 3955 ft 70 kts 288°
2026-04-25 18:23 56.12943 -3.64870 3918 ft 91 kts 294°
2026-04-25 18:23 56.13212 -3.65818 4005 ft 86 kts 301°
2026-04-25 18:24 56.13263 -3.67240 3272 ft 130 kts 281°
2026-04-25 18:24 56.13605 -3.68561 3315 ft 112 kts 295°
2026-04-25 18:24 56.13893 -3.69823 3271 ft 107 kts 287°
2026-04-25 18:24 56.14097 -3.71084 3245 ft 104 kts 284°
2026-04-25 18:25 56.14271 -3.72329 3225 ft 102 kts 281°
2026-04-25 18:25 56.14268 -3.73572 3169 ft 103 kts 251°
2026-04-25 18:25 56.13959 -3.74811 2997 ft 114 kts 242°
2026-04-25 18:25 56.13594 -3.76105 2871 ft 115 kts 241°
2026-04-25 18:26 56.13265 -3.77403 2760 ft 118 kts 245°
2026-04-25 18:26 56.12884 -3.78740 2650 ft 119 kts 234°
2026-04-25 18:26 56.12459 -3.79944 2696 ft 106 kts 232°
2026-04-25 18:26 56.12036 -3.81046 2583 ft 115 kts 237°
2026-04-25 18:27 56.11643 -3.82387 2390 ft 124 kts 240°
2026-04-25 18:27 56.11212 -3.83756 2193 ft 127 kts 234°
2026-04-25 18:27 56.10772 -3.85014 2292 ft 107 kts 234°
2026-04-25 18:27 56.10386 -3.86120 2275 ft 108 kts 233°
2026-04-25 18:28 56.09938 -3.87286 2102 ft 121 kts 229°
2026-04-25 18:28 56.09428 -3.88504 1988 ft 125 kts 226°
2026-04-25 18:28 56.08904 -3.89644 2055 ft 112 kts 224°
2026-04-25 18:29 56.07928 -3.91821 2015 ft 114 kts 232°
2026-04-25 18:29 56.07478 -3.92885 1923 ft 102 kts 221°
2026-04-25 18:30 56.05760 -3.96096 2140 ft 130 kts 228°
2026-04-25 18:30 56.05221 -3.97418 2264 ft 127 kts 232°
2026-04-25 18:30 56.04711 -3.98692 2347 ft 124 kts 232°
2026-04-25 18:30 56.04361 -4.00074 2485 ft 122 kts 254°
2026-04-25 18:31 56.04130 -4.01519 2618 ft 122 kts 251°
2026-04-25 18:31 56.03838 -4.02943 2750 ft 120 kts 247°
2026-04-25 18:31 56.03494 -4.04284 2851 ft 118 kts 241°
2026-04-25 18:31 56.03142 -4.05549 3058 ft 110 kts 242°
2026-04-25 18:32 56.02767 -4.06714 3190 ft 112 kts 235°
2026-04-25 18:32 56.02308 -4.07905 3242 ft 116 kts 234°
2026-04-25 18:32 56.01860 -4.09090 3341 ft 115 kts 235°
2026-04-25 18:32 56.01406 -4.10269 3410 ft 116 kts 233°
2026-04-25 18:33 56.00934 -4.11457 3484 ft 117 kts 233°
2026-04-25 18:33 56.00453 -4.12635 3487 ft 120 kts 232°
2026-04-25 18:33 55.99946 -4.13857 3355 ft 127 kts 232°
2026-04-25 18:33 55.99397 -4.15319 2658 ft 157 kts 234°
2026-04-25 18:34 55.98827 -4.16793 2348 ft 141 kts 233°
2026-04-25 18:34 55.98313 -4.18171 2056 ft 122 kts 234°
2026-04-25 18:34 55.97879 -4.19410 1909 ft 114 kts 234°
2026-04-25 18:34 55.97475 -4.20648 1931 ft 112 kts 237°
2026-04-25 18:35 55.97032 -4.21803 1919 ft 119 kts 229°
2026-04-25 18:35 55.96549 -4.23006 1929 ft 120 kts 233°
2026-04-25 18:35 55.96024 -4.24098 1969 ft 117 kts 223°
2026-04-25 18:35 55.95538 -4.25266 1992 ft 116 kts 228°
2026-04-25 18:36 55.95076 -4.26315 1946 ft 108 kts 228°
2026-04-25 18:36 55.94635 -4.27351 2001 ft 102 kts 231°
2026-04-25 18:36 55.94200 -4.28453 2000 ft 114 kts 232°
2026-04-25 18:36 55.93790 -4.29653 2028 ft 113 kts 238°
2026-04-25 18:37 55.93413 -4.30936 1937 ft 121 kts 239°
2026-04-25 18:37 55.92988 -4.32261 1811 ft 124 kts 238°
2026-04-25 18:37 55.92535 -4.33587 1739 ft 124 kts 232°
2026-04-25 18:37 55.92073 -4.34906 1615 ft 126 kts 235°
2026-04-25 18:38 55.91588 -4.36195 1531 ft 124 kts 233°
2026-04-25 18:38 55.91123 -4.37362 1438 ft 110 kts 229°
2026-04-25 18:38 55.90639 -4.38398 1371 ft 108 kts 225°
2026-04-25 18:38 55.90131 -4.39451 1223 ft 114 kts 225°
2026-04-25 18:39 55.89615 -4.40510 1118 ft 112 kts 224°
2026-04-25 18:39 55.89101 -4.41568 1033 ft 114 kts 224°
2026-04-25 18:39 55.88604 -4.42615 979 ft 108 kts 224°
2026-04-25 18:39 55.88102 -4.43597 948 ft 105 kts 224°
2026-04-25 18:40 55.87614 -4.44518 951 ft 101 kts 224°
2026-04-25 18:40 55.87131 -4.45442 907 ft 104 kts 225°
2026-04-25 18:40 55.86706 -4.46494 881 ft 104 kts 234°
2026-04-25 18:40 55.86328 -4.47630 827 ft 107 kts 240°
2026-04-25 18:41 55.85987 -4.48738 860 ft 102 kts 243°
2026-04-25 18:41 55.85543 -4.49120 936 ft 77 kts 120°
2026-04-25 18:41 55.85369 -4.48118 775 ft 90 kts 102°
2026-04-25 18:41 55.85370 -4.46956 392 ft 101 kts 68°
2026-04-25 18:42 55.85690 -4.46124 243 ft 71 kts 49°
2026-04-25 18:42 55.85800 -4.45924 196 ft 69 kts 44°
2026-04-25 18:42 55.86306 -4.45084 63 ft 60 kts 56°
2026-04-25 18:42 55.86572 -4.44500 31 ft 49 kts 47°
2026-04-25 18:43 55.86686 -4.44272 28 ft 12 kts 46°
2026-04-25 18:43 55.86742 -4.44168 27 ft 14 kts 47°
2026-04-25 18:43 55.86880 -4.43916 26 ft 34 kts 44°
2026-04-25 18:43 55.86982 -4.43667 28 ft 9 kts 125°
2026-04-25 18:44 55.86919 -4.43685 24 ft 11 kts 198°
2026-04-25 18:44 55.86835 -4.43709 23 ft 13 kts 176°
2026-04-25 18:44 55.86795 -4.43740 23 ft 6 kts 291°
2026-04-25 18:44 55.86792 -4.43764 22 ft 0 kts 200°
2026-04-25 18:45 55.86752 -4.43759 22 ft 10 kts 143°
2026-04-25 18:46 55.86741 -4.43679 24 ft 4 kts 81°
2026-04-25 18:46 55.86750 -4.43624 24 ft 6 kts 72°
2026-04-25 18:46 55.86762 -4.43543 25 ft 8 kts 75°
2026-04-25 18:46 55.86780 -4.43437 24 ft 10 kts 75°
2026-04-25 18:47 55.86799 -4.43322 26 ft 10 kts 74°
2026-04-25 18:47 55.86818 -4.43198 27 ft 11 kts 71°
2026-04-25 18:47 55.86843 -4.43051 27 ft 13 kts 74°
2026-04-25 18:47 55.86909 -4.42924 26 ft 16 kts 25°
2026-04-25 18:48 55.87013 -4.42835 24 ft 18 kts 18°
2026-04-25 18:48 55.87035 -4.42728 25 ft 10 kts 109°
2026-04-25 18:48 55.87067 -4.42649 25 ft 8 kts 316°